Metar z połowy godziny Komunikat METAR ze strony awiacja.imgw.pl Metar G00 EPKK METAR EPKK 211730Z 06009KT CAVOK 26/19 Q1013 =